Time;durP1;ratioP1;P1;durP2;ratioP2;P2;SDS_P1;SDS_P2;PMS_P1;PMS_P2;Temp;Humidity;BMP_temperature;BMP_pressure;BME280_temperature;BME280_humidity;BME280_pressure;Samples;Min_cycle;Max_cycle;Signal;HPM_P1;HPM_P2
2021/11/06 00:01:20;;;;;;;13.67;10.07;;;;;;;4.63;100.00;152552.59;5095346;28;20437;-73
2021/11/06 00:03:56;;;;;;;15.10;9.50;;;;;;;4.56;100.00;152534.59;5087805;28;20461;-73
2021/11/06 00:06:33;;;;;;;13.83;9.20;;;;;;;4.51;100.00;152521.69;5108287;27;20453;-73
2021/11/06 00:09:08;;;;;;;15.27;11.03;;;;;;;4.49;100.00;152516.56;5107419;28;20823;-73
2021/11/06 00:11:45;;;;;;;12.83;9.77;;;;;;;4.48;100.00;152513.97;5075374;28;20877;-73
2021/11/06 00:14:20;;;;;;;14.50;10.70;;;;;;;4.49;100.00;152515.25;5073485;28;20445;-72
2021/11/06 00:16:56;;;;;;;16.10;12.07;;;;;;;4.53;100.00;152525.53;5094181;28;20868;-73
2021/11/06 00:19:31;;;;;;;14.43;12.00;;;;;;;4.51;100.00;152521.69;5094940;28;20493;-73
2021/11/06 00:22:08;;;;;;;15.00;11.07;;;;;;;4.49;100.00;152515.25;5093187;28;20445;-73
2021/11/06 00:24:44;;;;;;;17.70;11.90;;;;;;;4.40;100.00;152493.34;5074613;28;20422;-73
2021/11/06 00:27:19;;;;;;;15.20;10.70;;;;;;;4.35;100.00;152479.19;5073180;28;20800;-73
2021/11/06 00:29:55;;;;;;;15.80;11.63;;;;;;;4.35;100.00;152479.19;5072785;28;20469;-72
2021/11/06 00:32:30;;;;;;;14.00;10.87;;;;;;;4.26;100.00;152457.31;5075773;28;20448;-73
2021/11/06 00:35:08;;;;;;;14.70;11.07;;;;;;;4.21;100.00;152444.41;5092669;28;20456;-73
2021/11/06 00:37:45;;;;;;;14.40;11.20;;;;;;;4.13;100.00;152423.84;5095481;28;20441;-73
2021/11/06 00:40:21;;;;;;;14.13;10.63;;;;;;;4.11;100.00;152419.94;5075958;28;20438;-73
2021/11/06 00:42:56;;;;;;;16.90;11.37;;;;;;;4.12;100.00;152421.25;5073120;28;20771;-73
2021/11/06 00:45:32;;;;;;;13.87;10.77;;;;;;;4.15;100.00;152428.97;5072924;28;20532;-72
2021/11/06 00:48:08;;;;;;;16.20;12.00;;;;;;;4.13;100.00;152425.09;5072871;28;20450;-73
2021/11/06 00:50:43;;;;;;;12.67;10.50;;;;;;;4.09;100.00;152413.50;5089700;28;20444;-72
2021/11/06 00:53:20;;;;;;;16.13;12.77;;;;;;;4.06;100.00;152405.78;5092598;28;20452;-72
2021/11/06 00:55:56;;;;;;;14.23;11.77;;;;;;;4.05;100.00;152404.47;5094894;28;20440;-73
2021/11/06 00:58:31;;;;;;;16.17;12.20;;;;;;;4.04;100.00;152400.63;5091631;28;20564;-72
2021/11/06 01:01:07;;;;;;;12.90;10.50;;;;;;;3.98;100.00;152385.16;5093171;28;20772;-72
2021/11/06 01:03:43;;;;;;;14.73;11.20;;;;;;;3.94;100.00;152376.19;5076290;28;20477;-72
2021/11/06 01:06:18;;;;;;;15.63;10.40;;;;;;;3.93;100.00;152372.28;5073754;28;20446;-72
2021/11/06 01:08:55;;;;;;;14.93;11.10;;;;;;;3.87;100.00;152356.81;5078080;28;20433;-72
2021/11/06 01:11:31;;;;;;;15.73;11.80;;;;;;;3.85;100.00;152353.00;5073145;28;20575;-72
2021/11/06 01:14:07;;;;;;;16.83;12.57;;;;;;;3.84;100.00;152349.16;5073202;28;20650;-72
2021/11/06 01:16:42;;;;;;;17.73;13.77;;;;;;;3.85;100.00;152353.00;5072580;28;20544;-72
2021/11/06 01:19:18;;;;;;;18.40;14.07;;;;;;;3.86;100.00;152355.56;5072577;28;20465;-73
2021/11/06 01:21:53;;;;;;;20.53;14.67;;;;;;;3.90;100.00;152364.56;5072194;28;20453;-72
2021/11/06 01:24:30;;;;;;;19.00;14.43;;;;;;;3.91;100.00;152368.47;5072493;28;20477;-72
2021/11/06 01:27:10;;;;;;;21.40;16.17;;;;;;;3.91;100.00;152368.47;5072745;28;20438;-73
2021/11/06 01:29:46;;;;;;;23.13;16.00;;;;;;;3.96;100.00;152380.03;5056976;28;20433;-73
2021/11/06 01:32:21;;;;;;;18.87;15.17;;;;;;;3.99;100.00;152387.75;5080735;28;20450;-72
2021/11/06 01:34:57;;;;;;;18.80;15.10;;;;;;;4.00;100.00;152390.31;5072218;28;20475;-73
2021/11/06 01:37:33;;;;;;;20.40;15.07;;;;;;;4.01;100.00;152392.91;5073830;28;20687;-73
2021/11/06 01:40:12;;;;;;;17.10;14.03;;;;;;;4.01;100.00;152392.91;5071753;28;20468;-73
2021/11/06 01:42:48;;;;;;;24.40;15.73;;;;;;;3.97;100.00;152383.88;5072246;28;20481;-72
2021/11/06 01:45:24;;;;;;;23.80;15.93;;;;;;;3.94;100.00;152374.88;5073237;28;20417;-73
2021/11/06 01:48:00;;;;;;;19.20;14.77;;;;;;;3.93;100.00;152372.28;5072779;28;20800;-72
2021/11/06 01:50:35;;;;;;;19.53;15.30;;;;;;;3.93;100.00;152372.28;5073803;28;20873;-73
2021/11/06 01:53:11;;;;;;;19.63;15.30;;;;;;;3.92;100.00;152369.75;5076612;28;20433;-73
2021/11/06 01:55:49;;;;;;;22.00;16.80;;;;;;;3.93;100.00;152372.28;5092994;28;20460;-73
2021/11/06 01:58:26;;;;;;;20.10;14.73;;;;;;;3.96;100.00;152380.03;5092916;28;20440;-73
2021/11/06 02:01:02;;;;;;;20.30;14.90;;;;;;;3.92;100.00;152371.00;5090070;28;20925;-73
2021/11/06 02:03:38;;;;;;;22.37;16.40;;;;;;;3.93;100.00;152373.59;5091892;28;20425;-73
2021/11/06 02:06:13;;;;;;;22.17;16.63;;;;;;;3.90;100.00;152365.84;5092475;28;20452;-73
2021/11/06 02:08:49;;;;;;;22.00;15.90;;;;;;;3.87;100.00;152356.81;5090905;28;20421;-73
2021/11/06 02:11:26;;;;;;;22.17;16.77;;;;;;;3.84;100.00;152350.41;5071703;28;20512;-73
2021/11/06 02:14:02;;;;;;;18.67;15.70;;;;;;;3.80;100.00;152340.13;5072691;28;20513;-73
2021/11/06 02:16:38;;;;;;;18.90;15.70;;;;;;;3.78;100.00;152333.69;5079481;28;20449;-73
2021/11/06 02:19:14;;;;;;;20.37;15.90;;;;;;;3.78;100.00;152333.69;5092973;28;20455;-72
2021/11/06 02:21:52;;;;;;;22.67;16.50;;;;;;;3.76;100.00;152328.53;5087116;28;20444;-72
2021/11/06 02:24:29;;;;;;;24.83;17.97;;;;;;;3.77;100.00;152331.09;5071360;28;20477;-73
2021/11/06 02:27:05;;;;;;;21.00;16.00;;;;;;;3.75;100.00;152325.94;5083828;28;20456;-73
2021/11/06 02:29:40;;;;;;;22.40;15.60;;;;;;;3.73;100.00;152320.81;5073103;28;20489;-73
2021/11/06 02:32:16;;;;;;;30.53;17.60;;;;;;;3.77;100.00;152331.09;5091493;28;20874;-73
2021/11/06 02:34:51;;;;;;;23.07;16.83;;;;;;;3.76;100.00;152328.53;5084754;28;20931;-73
2021/11/06 02:37:28;;;;;;;22.13;16.90;;;;;;;3.75;100.00;152325.94;5071404;28;20452;-72
2021/11/06 02:40:04;;;;;;;24.53;17.00;;;;;;;3.71;100.00;152315.69;5072759;28;20468;-72
2021/11/06 02:42:41;;;;;;;20.40;16.03;;;;;;;3.75;100.00;152325.94;5071142;28;20444;-72
2021/11/06 02:45:16;;;;;;;32.87;18.00;;;;;;;3.81;100.00;152341.41;5071752;28;20971;-73
2021/11/06 02:47:52;;;;;;;23.37;17.30;;;;;;;3.79;100.00;152336.22;5071382;28;20429;-73
2021/11/06 02:50:28;;;;;;;22.17;15.50;;;;;;;3.73;100.00;152322.13;5072384;28;20946;-73
2021/11/06 02:53:05;;;;;;;32.83;17.00;;;;;;;3.69;100.00;152313.09;5071182;28;20870;-73
2021/11/06 02:55:41;;;;;;;57.10;16.90;;;;;;;3.65;100.00;152302.75;5072834;28;20459;-73
2021/11/06 02:58:16;;;;;;;61.80;17.07;;;;;;;3.62;100.00;152293.78;5078104;28;20473;-72
2021/11/06 03:00:51;;;;;;;50.73;15.87;;;;;;;3.58;100.00;152284.75;5082263;28;20482;-73
2021/11/06 03:03:27;;;;;;;34.73;14.27;;;;;;;3.62;100.00;152295.06;5070627;28;20444;-72
2021/11/06 03:06:03;;;;;;;42.77;15.17;;;;;;;3.57;100.00;152282.16;5089098;28;20826;-73
2021/11/06 03:08:40;;;;;;;45.53;13.90;;;;;;;3.53;100.00;152271.88;5091255;28;20443;-72
2021/11/06 03:11:15;;;;;;;22.07;11.80;;;;;;;3.49;100.00;152260.31;5090308;28;20512;-72
2021/11/06 03:13:50;;;;;;;39.80;14.10;;;;;;;3.45;100.00;152251.28;5077683;28;20448;-73
2021/11/06 03:16:26;;;;;;;34.87;13.60;;;;;;;3.41;100.00;152241.00;5074106;28;20554;-72
2021/11/06 03:19:01;;;;;;;18.37;12.20;;;;;;;3.37;100.00;152230.69;5075873;28;20452;-72
2021/11/06 03:21:37;;;;;;;30.53;12.63;;;;;;;3.33;100.00;152220.41;5074656;28;20930;-72
2021/11/06 03:24:14;;;;;;;20.60;12.00;;;;;;;3.36;100.00;152226.84;5083667;28;20444;-73
2021/11/06 03:26:49;;;;;;;18.33;11.87;;;;;;;3.34;100.00;152222.97;5076926;28;20822;-73
2021/11/06 03:29:25;;;;;;;19.80;12.37;;;;;;;3.33;100.00;152220.41;5076625;28;20534;-72
2021/11/06 03:32:01;;;;;;;34.43;12.37;;;;;;;3.28;100.00;152207.56;5059376;28;20939;-72
2021/11/06 03:34:37;;;;;;;21.47;11.73;;;;;;;3.21;100.00;152188.22;5087891;28;20491;-72
2021/11/06 03:37:13;;;;;;;35.53;11.67;;;;;;;3.20;100.00;152186.97;5096018;28;20436;-72
2021/11/06 03:39:49;;;;;;;28.03;11.80;;;;;;;3.19;100.00;152184.38;5094521;28;20563;-73
2021/11/06 03:42:25;;;;;;;24.93;10.27;;;;;;;3.12;100.00;152165.06;5095027;28;20444;-73
2021/11/06 03:45:00;;;;;;;41.90;11.63;;;;;;;3.05;100.00;152148.31;5094704;28;20439;-72
2021/11/06 03:47:36;;;;;;;16.90;10.50;;;;;;;2.99;100.00;152132.91;5093690;28;20978;-73
2021/11/06 03:50:11;;;;;;;19.93;11.17;;;;;;;2.99;100.00;152134.16;5094618;28;20950;-73
2021/11/06 03:52:47;;;;;;;17.73;10.90;;;;;;;2.97;100.00;152127.75;5076351;28;20457;-72
2021/11/06 03:55:24;;;;;;;19.80;11.20;;;;;;;2.93;100.00;152118.75;5081423;28;20890;-73
2021/11/06 03:58:00;;;;;;;17.90;10.30;;;;;;;2.93;100.00;152117.47;5094009;28;20921;-72
2021/11/06 04:00:35;;;;;;;20.97;10.03;;;;;;;2.87;100.00;152102.00;5095387;28;20459;-72
2021/11/06 04:03:10;;;;;;;25.60;10.43;;;;;;;2.81;100.00;152086.56;5094151;28;20447;-72
2021/11/06 04:05:46;;;;;;;13.37;10.50;;;;;;;2.81;100.00;152086.56;5075326;28;20475;-72
2021/11/06 04:08:21;;;;;;;11.53;9.70;;;;;;;2.77;100.00;152076.28;5075245;28;20425;-72
2021/11/06 04:10:58;;;;;;;14.10;10.20;;;;;;;2.75;100.00;152071.16;5110240;27;20452;-73
2021/11/06 04:13:35;;;;;;;14.13;10.17;;;;;;;2.73;100.00;152065.97;5074051;28;20426;-73
2021/11/06 04:16:10;;;;;;;14.50;8.63;;;;;;;2.70;100.00;152058.31;5099632;28;20442;-73
2021/11/06 04:18:46;;;;;;;23.13;10.60;;;;;;;2.67;100.00;152051.88;5074791;28;20770;-73
2021/11/06 04:21:21;;;;;;;15.90;9.23;;;;;;;2.69;100.00;152055.72;5073832;28;20476;-73
2021/11/06 04:23:57;;;;;;;20.63;9.67;;;;;;;2.67;100.00;152051.88;5107645;28;20528;-72
2021/11/06 04:26:34;;;;;;;17.63;9.30;;;;;;;2.64;100.00;152042.84;5106303;28;20457;-73
2021/11/06 04:29:10;;;;;;;17.77;10.20;;;;;;;2.62;100.00;152037.72;5078746;28;20430;-72
2021/11/06 04:31:45;;;;;;;22.77;10.33;;;;;;;2.62;100.00;152037.72;5095072;28;20439;-72
2021/11/06 04:34:20;;;;;;;16.53;8.87;;;;;;;2.59;100.00;152030.00;5094630;28;20538;-72
2021/11/06 04:36:56;;;;;;;30.33;9.63;;;;;;;2.59;100.00;152030.00;5095086;28;20438;-72
2021/11/06 04:39:31;;;;;;;20.10;10.40;;;;;;;2.57;100.00;152024.88;5126032;27;20988;-72
2021/11/06 04:42:09;;;;;;;17.77;8.73;;;;;;;2.54;100.00;152017.16;5076946;28;20483;-73
2021/11/06 04:44:45;;;;;;;15.33;8.77;;;;;;;2.54;100.00;152018.44;5073620;28;20432;-73
2021/11/06 04:47:20;;;;;;;23.23;8.47;;;;;;;2.57;100.00;152024.88;5074896;28;20468;-73
2021/11/06 04:49:57;;;;;;;19.77;8.93;;;;;;;2.52;100.00;152013.25;5074847;28;20453;-72
2021/11/06 04:52:33;;;;;;;20.10;9.10;;;;;;;2.50;100.00;152006.84;5073926;28;20439;-72
2021/11/06 04:55:12;;;;;;;13.80;8.03;;;;;;;2.45;100.00;151996.56;5074728;28;20440;-72
2021/11/06 04:57:49;;;;;;;16.47;7.30;;;;;;;2.43;100.00;151991.44;5109918;28;20447;-72
2021/11/06 05:00:24;;;;;;;13.03;9.10;;;;;;;2.39;100.00;151981.13;5090214;28;20989;-72
2021/11/06 05:03:00;;;;;;;12.33;8.73;;;;;;;2.36;100.00;151973.41;5093241;28;20435;-73
2021/11/06 05:05:36;;;;;;;11.40;8.30;;;;;;;2.37;100.00;151976.00;5076753;28;20474;-72
2021/11/06 05:08:12;;;;;;;11.70;7.50;;;;;;;2.34;100.00;151968.25;5057415;28;20447;-72
2021/11/06 05:10:47;;;;;;;13.63;8.63;;;;;;;2.31;100.00;151960.53;5076160;28;20459;-73
2021/11/06 05:13:24;;;;;;;10.63;8.20;;;;;;;2.29;100.00;151954.13;5072876;28;20484;-73
2021/11/06 05:16:00;;;;;;;9.10;7.00;;;;;;;2.23;100.00;151939.97;5073850;28;20443;-72
2021/11/06 05:18:35;;;;;;;10.83;8.00;;;;;;;2.28;100.00;151952.81;5085361;28;20445;-72
2021/11/06 05:21:11;;;;;;;8.93;7.47;;;;;;;2.25;100.00;151943.84;5106612;28;20484;-72
2021/11/06 05:23:47;;;;;;;9.73;7.20;;;;;;;2.23;100.00;151939.97;5106192;28;20800;-72
2021/11/06 05:26:22;;;;;;;9.27;7.40;;;;;;;2.25;100.00;151945.09;5074314;28;20447;-72
2021/11/06 05:28:59;;;;;;;13.33;7.77;;;;;;;2.22;100.00;151936.13;5074308;28;20877;-72
2021/11/06 05:31:35;;;;;;;10.90;7.80;;;;;;;2.12;100.00;151910.44;5071718;28;20448;-73
2021/11/06 05:34:11;;;;;;;8.60;6.83;;;;;;;2.11;100.00;151909.13;5095364;28;20980;-72
2021/11/06 05:36:46;;;;;;;10.53;7.67;;;;;;;2.09;100.00;151903.94;5090863;28;20602;-73
2021/11/06 05:39:22;;;;;;;21.83;7.90;;;;;;;2.07;100.00;151898.81;5105774;28;20436;-73
2021/11/06 05:41:57;;;;;;;30.17;8.13;;;;;;;2.05;100.00;151893.69;5072434;28;20484;-72
2021/11/06 05:44:35;;;;;;;37.97;8.60;;;;;;;2.01;100.00;151883.44;5072740;28;20456;-72
2021/11/06 05:47:10;;;;;;;10.40;6.73;;;;;;;1.98;100.00;151874.41;5090803;28;20491;-72
2021/11/06 05:49:46;;;;;;;10.73;6.87;;;;;;;1.92;100.00;151858.97;5092095;28;20463;-72
2021/11/06 05:52:22;;;;;;;10.80;6.90;;;;;;;1.92;100.00;151860.28;5093299;28;20435;-72
2021/11/06 05:54:57;;;;;;;28.17;8.63;;;;;;;1.95;100.00;151866.69;5091919;28;20936;-72
2021/11/06 05:57:34;;;;;;;17.10;7.10;;;;;;;1.94;100.00;151865.41;5091075;28;20534;-72
2021/11/06 06:00:17;;;;;;;14.53;6.60;;;;;;;1.88;100.00;151849.97;5126259;27;20461;-72
2021/11/06 06:02:53;;;;;;;11.73;7.57;;;;;;;1.86;100.00;151844.84;5091132;28;20880;-72
2021/11/06 06:05:28;;;;;;;14.07;6.80;;;;;;;1.81;100.00;151833.28;5085222;28;20439;-72
2021/11/06 06:08:04;;;;;;;20.53;7.40;;;;;;;1.82;100.00;151834.56;5091833;28;20434;-72
2021/11/06 06:10:40;;;;;;;16.93;8.17;;;;;;;1.74;100.00;151815.31;5076551;28;20976;-73
2021/11/06 06:13:15;;;;;;;21.40;8.70;;;;;;;1.75;100.00;151816.56;5105021;28;20446;-72
2021/11/06 06:15:54;;;;;;;32.57;9.10;;;;;;;1.72;100.00;151810.13;5073853;28;20479;-72
2021/11/06 06:18:29;;;;;;;30.53;9.37;;;;;;;1.76;100.00;151820.44;5071469;28;20450;-72
2021/11/06 06:21:05;;;;;;;51.97;9.60;;;;;;;1.78;100.00;151825.56;5087639;28;20509;-72
2021/11/06 06:23:41;;;;;;;17.97;7.10;;;;;;;1.80;100.00;151829.44;5089502;28;20438;-72
2021/11/06 06:26:17;;;;;;;24.10;8.10;;;;;;;1.83;100.00;151838.41;5071379;28;20553;-72
2021/11/06 06:28:53;;;;;;;48.70;9.17;;;;;;;1.80;100.00;151829.44;5056014;28;20438;-72
2021/11/06 06:31:30;;;;;;;23.83;7.90;;;;;;;1.82;100.00;151834.56;5078150;28;20440;-72
2021/11/06 06:34:05;;;;;;;50.30;8.90;;;;;;;1.80;100.00;151830.69;5090708;28;20444;-72
2021/11/06 06:36:40;;;;;;;43.13;8.77;;;;;;;1.80;100.00;151830.69;5088131;28;20447;-72
2021/11/06 06:39:15;;;;;;;14.50;8.07;;;;;;;1.84;100.00;151839.72;5104913;28;20521;-72
2021/11/06 06:41:51;;;;;;;25.67;8.70;;;;;;;1.89;100.00;151851.25;5086127;28;20481;-72
2021/11/06 06:44:26;;;;;;;42.70;9.30;;;;;;;1.93;100.00;151861.56;5109694;28;20432;-72
2021/11/06 06:47:04;;;;;;;13.43;7.93;;;;;;;1.96;100.00;151870.53;5093216;28;20441;-72
2021/11/06 06:49:39;;;;;;;25.90;8.10;;;;;;;1.99;100.00;151878.25;5069197;28;20456;-72
2021/11/06 06:52:15;;;;;;;24.43;8.47;;;;;;;2.03;100.00;151887.25;5125380;27;20796;-73
2021/11/06 06:54:50;;;;;;;25.53;7.83;;;;;;;2.05;100.00;151892.41;5110283;28;20877;-72
2021/11/06 06:57:26;;;;;;;15.63;7.60;;;;;;;2.08;100.00;151901.41;5105076;28;20448;-72
2021/11/06 07:00:02;;;;;;;12.70;7.47;;;;;;;2.15;100.00;151919.41;5084268;28;20961;-72
2021/11/06 07:02:39;;;;;;;11.97;7.43;;;;;;;2.18;100.00;151927.13;5071331;28;20538;-73
2021/11/06 07:05:14;;;;;;;18.73;8.47;;;;;;;2.22;100.00;151937.44;5071314;28;20452;-72
2021/11/06 07:07:52;;;;;;;15.20;7.23;;;;;;;2.25;100.00;151945.09;5080055;28;20477;-72
2021/11/06 07:10:28;;;;;;;20.17;8.00;;;;;;;2.26;100.00;151946.41;5071576;28;20442;-72
2021/11/06 07:13:05;;;;;;;23.40;8.70;;;;;;;2.33;100.00;151964.44;5072083;28;20506;-72
2021/11/06 07:15:40;;;;;;;16.40;9.00;;;;;;;2.29;100.00;151954.13;5110983;28;20456;-73
2021/11/06 07:18:18;;;;;;;16.20;7.73;;;;;;;2.31;100.00;151959.25;5081737;28;20430;-72
2021/11/06 07:20:53;;;;;;;23.53;10.07;;;;;;;2.37;100.00;151976.00;5124753;28;20483;-72
2021/11/06 07:23:28;;;;;;;20.47;8.80;;;;;;;2.46;100.00;151999.09;5072535;28;20443;-72
2021/11/06 07:26:04;;;;;;;19.33;8.53;;;;;;;2.49;100.00;152004.28;5080520;28;20837;-72
2021/11/06 07:28:39;;;;;;;29.23;9.47;;;;;;;2.51;100.00;152009.41;5078681;28;20531;-72
2021/11/06 07:31:16;;;;;;;29.87;9.17;;;;;;;2.54;100.00;152017.16;5094877;28;20520;-73
2021/11/06 07:33:54;;;;;;;26.23;9.50;;;;;;;2.60;100.00;152032.53;5089415;28;20921;-72
2021/11/06 07:36:30;;;;;;;14.10;8.00;;;;;;;2.64;100.00;152042.84;5091132;28;20481;-72
2021/11/06 07:39:05;;;;;;;21.33;9.20;;;;;;;2.67;100.00;152050.56;5090494;28;20448;-72
2021/11/06 07:41:40;;;;;;;22.43;9.37;;;;;;;2.70;100.00;152059.56;5090143;28;20808;-72
2021/11/06 07:44:16;;;;;;;15.60;8.40;;;;;;;2.78;100.00;152080.13;5071212;28;20454;-72
2021/11/06 07:46:52;;;;;;;15.83;8.87;;;;;;;2.79;100.00;152081.44;5071599;28;20448;-73
2021/11/06 07:49:28;;;;;;;16.97;9.00;;;;;;;2.82;100.00;152089.16;5104282;28;20449;-72
2021/11/06 07:52:04;;;;;;;34.87;10.03;;;;;;;2.89;100.00;152107.16;5104133;28;20447;-72
2021/11/06 07:54:40;;;;;;;16.07;9.80;;;;;;;2.94;100.00;152120.00;5088266;28;20435;-73
2021/11/06 07:57:16;;;;;;;15.07;8.10;;;;;;;2.97;100.00;152129.03;5124788;28;20439;-72
2021/11/06 07:59:51;;;;;;;27.20;9.13;;;;;;;3.06;100.00;152152.22;5104144;28;20463;-72
2021/11/06 08:02:27;;;;;;;34.77;8.93;;;;;;;3.06;100.00;152150.91;5084902;28;20471;-73
2021/11/06 08:05:05;;;;;;;28.23;9.37;;;;;;;3.11;100.00;152162.47;5088671;28;20439;-72
2021/11/06 08:07:41;;;;;;;11.97;7.60;;;;;;;3.15;100.00;152174.03;5074980;28;20442;-72
2021/11/06 08:10:17;;;;;;;21.33;8.33;;;;;;;3.23;100.00;152194.63;5074271;28;20436;-73
2021/11/06 08:12:52;;;;;;;16.90;8.47;;;;;;;3.26;100.00;152202.38;5081117;28;20562;-72
2021/11/06 08:15:29;;;;;;;31.83;10.60;;;;;;;3.32;100.00;152216.53;5089336;28;20437;-73
2021/11/06 08:18:04;;;;;;;21.93;9.03;;;;;;;3.31;100.00;152215.22;5093685;28;20440;-73
2021/11/06 08:20:41;;;;;;;18.10;7.87;;;;;;;3.42;100.00;152243.56;5090309;28;20499;-73
2021/11/06 08:23:17;;;;;;;20.03;7.43;;;;;;;3.48;100.00;152257.72;5093797;28;20857;-73
2021/11/06 08:25:53;;;;;;;12.47;7.50;;;;;;;3.53;100.00;152270.59;5093545;28;20483;-73
2021/11/06 08:28:28;;;;;;;34.03;9.50;;;;;;;3.54;100.00;152274.47;5093632;28;20443;-73
2021/11/06 08:31:04;;;;;;;18.10;8.20;;;;;;;3.55;100.00;152277.03;5098577;28;20464;-73
2021/11/06 08:33:39;;;;;;;24.53;8.83;;;;;;;3.58;100.00;152284.75;5089322;28;20452;-73
2021/11/06 08:36:16;;;;;;;27.30;9.30;;;;;;;3.64;100.00;152298.91;5092674;28;20478;-73
2021/11/06 08:38:52;;;;;;;17.30;8.00;;;;;;;3.70;100.00;152314.38;5084283;28;20445;-73
2021/11/06 08:41:27;;;;;;;25.27;9.03;;;;;;;3.76;100.00;152329.78;5073127;28;20571;-73
2021/11/06 08:44:03;;;;;;;21.70;8.97;;;;;;;3.73;100.00;152320.81;5074387;28;20425;-73
2021/11/06 08:46:41;;;;;;;20.40;8.90;;;;;;;3.81;100.00;152341.41;5072931;28;20441;-73
2021/11/06 08:49:16;;;;;;;29.03;10.47;;;;;;;3.87;100.00;152358.13;5073394;28;20579;-73
2021/11/06 08:51:55;;;;;;;13.57;7.80;;;;;;;3.90;100.00;152365.84;5058882;28;20449;-73
2021/11/06 08:54:31;;;;;;;18.70;7.73;;;;;;;3.93;100.00;152373.59;5106817;28;20539;-73
2021/11/06 08:57:06;;;;;;;13.90;6.77;;;;;;;3.91;100.00;152368.47;5107378;28;20794;-73
2021/11/06 08:59:43;;;;;;;36.73;10.23;;;;;;;3.93;100.00;152372.28;5126448;27;20795;-73
2021/11/06 09:02:18;;;;;;;32.13;7.70;;;;;;;3.91;100.00;152367.16;5093403;28;21005;-73
2021/11/06 09:04:54;;;;;;;24.33;8.33;;;;;;;3.95;100.00;152377.44;5092742;28;20443;-73
2021/11/06 09:07:32;;;;;;;68.20;11.50;;;;;;;3.90;100.00;152364.56;5091992;28;20444;-73
2021/11/06 09:10:11;;;;;;;67.07;11.03;;;;;;;3.94;100.00;152374.88;5069011;28;20540;-73
2021/11/06 09:12:47;;;;;;;53.57;10.40;;;;;;;3.93;100.00;152373.59;5073176;28;20508;-73
2021/11/06 09:15:23;;;;;;;63.83;10.40;;;;;;;3.97;100.00;152383.88;5073854;28;20693;-73
2021/11/06 09:17:59;;;;;;;48.83;10.00;;;;;;;4.01;100.00;152394.19;5073687;28;20480;-73
2021/11/06 09:20:34;;;;;;;21.63;8.00;;;;;;;4.08;100.00;152412.22;5072158;28;20438;-73
2021/11/06 09:23:12;;;;;;;11.50;7.47;;;;;;;4.18;100.00;152437.97;5073591;28;20417;-73
2021/11/06 09:25:47;;;;;;;26.53;8.80;;;;;;;4.26;100.00;152457.31;5073243;28;20529;-73
2021/11/06 09:28:23;;;;;;;32.27;9.43;;;;;;;4.24;100.00;152452.13;5081946;28;20530;-73
2021/11/06 09:30:59;;;;;;;16.77;8.23;;;;;;;4.21;100.00;152445.69;5106327;28;20453;-73
2021/11/06 09:33:35;;;;;;;96.40;12.80;;;;;;;4.21;100.00;152445.69;5076382;28;20418;-73
2021/11/06 09:36:11;;;;;;;66.17;12.67;;;;;;;4.23;100.00;152450.88;5081496;28;20519;-73
2021/11/06 09:38:48;;;;;;;17.57;8.63;;;;;;;4.26;100.00;152457.31;5072030;28;20792;-73
2021/11/06 09:41:23;;;;;;;44.97;9.93;;;;;;;4.32;100.00;152472.75;5071804;28;21046;-73
2021/11/06 09:43:59;;;;;;;36.40;9.13;;;;;;;4.38;100.00;152488.22;5075163;28;20461;-73
2021/11/06 09:46:35;;;;;;;34.27;9.90;;;;;;;4.45;100.00;152506.22;5073518;28;20465;-73
2021/11/06 09:49:10;;;;;;;34.73;9.20;;;;;;;4.43;100.00;152499.78;5073233;28;20446;-73
2021/11/06 09:51:45;;;;;;;29.23;9.10;;;;;;;4.53;100.00;152526.84;5072096;28;20442;-73
2021/11/06 09:54:22;;;;;;;28.40;10.23;;;;;;;4.57;100.00;152537.19;5109472;27;20429;-73
2021/11/06 09:56:58;;;;;;;37.87;10.40;;;;;;;4.68;100.00;152564.22;5093700;28;20436;-73
2021/11/06 09:59:34;;;;;;;23.23;9.60;;;;;;;4.63;100.00;152551.34;5091610;28;20502;-73
2021/11/06 10:02:10;;;;;;;11.83;8.23;;;;;;;4.68;100.00;152565.53;5111481;27;20469;-73
2021/11/06 10:04:46;;;;;;;20.27;9.67;;;;;;;4.72;100.00;152574.50;5106356;27;20946;-73
2021/11/06 10:07:23;;;;;;;45.80;10.40;;;;;;;4.69;100.00;152568.06;5083810;28;20521;-73
2021/11/06 10:10:04;;;;;;;84.23;11.40;;;;;;;4.50;100.00;152519.09;5072145;28;20457;-73
2021/11/06 10:12:48;;;;;;;27.20;9.60;;;;;;;4.53;100.00;152526.84;5088278;28;20516;-73
2021/11/06 10:15:26;;;;;;;29.77;10.07;;;;;;;4.61;100.00;152546.16;5056198;28;20961;-73
2021/11/06 10:18:14;;;;;;;48.77;12.07;;;;;;;4.69;100.00;152566.78;5076668;28;20444;-73
2021/11/06 10:20:51;;;;;;;66.53;12.43;;;;;;;4.68;100.00;152565.53;5092853;28;20482;-73
2021/11/06 10:23:28;;;;;;;30.63;10.97;;;;;;;4.78;100.00;152590.00;5061258;28;20445;-73
2021/11/06 10:26:18;;;;;;;45.47;12.27;;;;;;;4.88;100.00;152617.06;5056087;28;20453;-73
2021/11/06 10:29:04;;;;;;;65.53;14.07;;;;;;;4.99;100.00;152642.81;5071230;28;20437;-73
2021/11/06 10:32:02;;;;;;;58.10;13.57;;;;;;;4.96;100.00;152635.06;5072188;28;20465;-73
2021/11/06 10:34:40;;;;;;;46.23;13.10;;;;;;;4.90;100.00;152622.19;5072776;28;20445;-73
2021/11/06 10:37:16;;;;;;;40.40;13.20;;;;;;;4.86;100.00;152611.91;5072808;28;20438;-73
2021/11/06 10:39:55;;;;;;;27.40;13.77;;;;;;;4.87;100.00;152614.47;5072561;28;20441;-73
2021/11/06 10:42:32;;;;;;;27.67;14.30;;;;;;;4.95;100.00;152632.53;5096669;28;20956;-73
2021/11/06 10:45:09;;;;;;;18.67;12.67;;;;;;;5.02;100.00;152650.56;5071352;28;20425;-73
2021/11/06 10:47:56;;;;;;;21.30;13.27;;;;;;;5.11;100.00;152675.03;5071475;28;20935;-73
2021/11/06 10:50:50;;;;;;;35.30;14.37;;;;;;;5.17;100.00;152690.50;5070777;28;20842;-73
2021/11/06 10:53:40;;;;;;;22.60;14.57;;;;;;;5.20;100.00;152696.94;5085115;28;20449;-73
2021/11/06 10:56:28;;;;;;;58.17;15.40;;;;;;;5.12;100.00;152676.31;5091303;28;20465;-73
2021/11/06 10:59:09;;;;;;;39.00;15.70;;;;;;;5.20;100.00;152698.25;5091046;28;20437;-73
2021/11/06 11:01:46;;;;;;;25.70;14.27;;;;;;;5.15;100.00;152684.06;5090629;28;20476;-73
2021/11/06 11:04:24;;;;;;;24.43;13.53;;;;;;;5.27;100.00;152715.03;5072153;28;20450;-73
2021/11/06 11:07:01;;;;;;;25.63;14.83;;;;;;;5.32;100.00;152729.16;5070885;28;20840;-73
2021/11/06 11:09:37;;;;;;;22.03;14.47;;;;;;;5.41;100.00;152751.09;5078859;28;20441;-73
2021/11/06 11:12:16;;;;;;;21.53;14.27;;;;;;;5.51;100.00;152776.88;5070511;28;20823;-73
2021/11/06 11:14:55;;;;;;;33.40;15.20;;;;;;;5.57;100.00;152791.06;5070673;28;20450;-73
2021/11/06 11:17:48;;;;;;;27.07;14.10;;;;;;;5.49;100.00;152771.72;5071601;28;20925;-73
2021/11/06 11:20:25;;;;;;;21.73;13.57;;;;;;;5.50;100.00;152775.63;5071671;28;20445;-73
2021/11/06 11:23:21;;;;;;;24.50;13.77;;;;;;;5.58;100.00;152794.97;5086688;28;20466;-73
2021/11/06 11:25:57;;;;;;;23.07;14.17;;;;;;;5.67;100.00;152816.84;5073826;28;20450;-73
2021/11/06 11:28:32;;;;;;;27.70;16.43;;;;;;;5.65;100.00;152813.00;5071423;28;20493;-73
2021/11/06 11:31:09;;;;;;;29.40;15.30;;;;;;;5.43;100.00;152756.25;5058572;28;20450;-73
2021/11/06 11:33:45;;;;;;;24.33;16.20;;;;;;;5.42;100.00;152753.69;5090544;28;20441;-73
2021/11/06 11:36:23;;;;;;;22.80;14.53;;;;;;;5.45;100.00;152761.44;5083469;28;20529;-73
2021/11/06 11:39:00;;;;;;;27.57;18.17;;;;;;;5.41;100.00;152752.41;5074512;28;20445;-73
2021/11/06 11:42:06;;;;;;;26.80;17.27;;;;;;;5.57;100.00;152791.06;5104654;28;20968;-73
2021/11/06 11:45:00;;;;;;;28.30;16.03;;;;;;;5.66;100.00;152815.59;5077333;28;20831;-73
2021/11/06 11:47:43;;;;;;;27.70;15.40;;;;;;;5.69;100.00;152823.34;5090609;28;20866;-73
2021/11/06 11:50:24;;;;;;;28.90;17.53;;;;;;;5.80;100.00;152850.44;5074049;28;20446;-73
2021/11/06 11:53:01;;;;;;;28.40;18.17;;;;;;;5.94;100.00;152887.84;5079438;28;20434;-73
2021/11/06 11:55:42;;;;;;;26.97;18.30;;;;;;;6.02;100.00;152907.19;5085757;28;20862;-73